createdAt,value
2023-01-12T00:02:20.442Z,1.70
2023-01-12T00:04:47.468Z,1.30
2023-01-12T00:07:16.203Z,1.73
2023-01-12T00:09:43.488Z,1.70
2023-01-12T00:12:12.582Z,1.63
2023-01-12T00:14:40.353Z,1.60
2023-01-12T00:17:09.426Z,1.97
2023-01-12T00:19:39.012Z,2.13
2023-01-12T00:22:08.963Z,1.90
2023-01-12T00:24:39.715Z,1.80
2023-01-12T00:27:10.155Z,1.50
2023-01-12T00:29:37.914Z,1.60
2023-01-12T00:32:06.322Z,1.80
2023-01-12T00:34:34.040Z,1.60
2023-01-12T00:37:02.253Z,2.53
2023-01-12T00:39:29.339Z,1.73
2023-01-12T00:42:15.242Z,1.57
2023-01-12T00:45:00.787Z,1.60
2023-01-12T00:47:27.736Z,1.40
2023-01-12T00:49:54.776Z,1.87
2023-01-12T00:52:30.947Z,1.90
2023-01-12T00:55:00.092Z,1.83
2023-01-12T00:57:28.605Z,1.70
2023-01-12T00:59:58.405Z,1.30
2023-01-12T01:02:28.000Z,1.10
2023-01-12T01:04:56.213Z,1.10
2023-01-12T01:07:23.852Z,1.00
2023-01-12T01:09:51.775Z,1.00
2023-01-12T01:12:19.398Z,0.90
2023-01-12T01:14:48.719Z,1.10
2023-01-12T01:17:16.028Z,1.40
2023-01-12T01:19:43.886Z,1.43
2023-01-12T01:22:13.280Z,1.37
2023-01-12T01:24:41.799Z,1.30
2023-01-12T01:27:08.766Z,1.57
2023-01-12T01:29:35.816Z,1.30
2023-01-12T01:32:02.955Z,1.40
2023-01-12T01:34:30.006Z,1.30
2023-01-12T01:36:56.968Z,1.00
2023-01-12T01:39:23.957Z,1.40
2023-01-12T01:41:51.706Z,1.87
2023-01-12T01:44:30.829Z,1.40
2023-01-12T01:47:08.665Z,1.30
2023-01-12T01:49:49.333Z,1.60
2023-01-12T01:52:28.754Z,1.90
2023-01-12T01:55:36.495Z,2.10
2023-01-12T01:58:09.760Z,1.80
2023-01-12T02:00:39.956Z,1.83
2023-01-12T02:03:08.914Z,1.97
2023-01-12T02:05:38.055Z,2.67
2023-01-12T02:08:47.338Z,2.27
2023-01-12T02:11:35.048Z,2.80
2023-01-12T02:14:21.066Z,2.67
2023-01-12T02:17:20.017Z,2.57
2023-01-12T02:19:58.998Z,2.53
2023-01-12T02:23:03.243Z,1.80
2023-01-12T02:26:07.115Z,2.63
2023-01-12T02:29:15.462Z,1.60
2023-01-12T02:32:15.808Z,2.00
2023-01-12T02:35:33.604Z,1.97
2023-01-12T02:39:02.746Z,1.83
2023-01-12T02:42:40.443Z,2.30
2023-01-12T02:45:36.545Z,2.27
2023-01-12T02:48:26.437Z,1.80
2023-01-12T02:51:34.797Z,1.97
2023-01-12T02:54:12.148Z,2.20
2023-01-12T02:56:52.631Z,2.10
2023-01-12T02:59:30.725Z,2.60
2023-01-12T03:02:13.293Z,2.63
2023-01-12T03:04:41.712Z,2.50
2023-01-12T03:07:14.951Z,1.90
2023-01-12T03:09:58.904Z,1.80
2023-01-12T03:12:36.447Z,1.50
2023-01-12T03:15:08.979Z,1.73
2023-01-12T03:17:48.064Z,2.40
2023-01-12T03:20:27.367Z,1.67
2023-01-12T03:23:01.887Z,2.00
2023-01-12T03:25:33.863Z,2.00
2023-01-12T03:28:05.458Z,1.90
2023-01-12T03:30:43.399Z,2.03
2023-01-12T03:33:12.313Z,2.10
2023-01-12T03:35:50.966Z,2.20
2023-01-12T03:39:06.001Z,1.83
2023-01-12T03:41:43.778Z,2.20
2023-01-12T03:44:20.983Z,2.63
2023-01-12T03:47:01.207Z,2.40
2023-01-12T03:49:37.138Z,1.80
2023-01-12T03:52:08.090Z,2.20
2023-01-12T03:54:39.463Z,1.77
2023-01-12T03:57:10.006Z,1.83
2023-01-12T03:59:36.972Z,2.00
2023-01-12T04:02:04.834Z,1.20
2023-01-12T04:04:31.855Z,2.10
2023-01-12T04:07:01.068Z,1.70
2023-01-12T04:09:28.740Z,1.80
2023-01-12T04:12:10.629Z,1.90
2023-01-12T04:14:46.836Z,1.57
2023-01-12T04:17:15.851Z,1.97
2023-01-12T04:19:43.498Z,1.67
2023-01-12T04:22:33.310Z,2.00
2023-01-12T04:25:00.490Z,1.50
2023-01-12T04:27:27.469Z,2.00
2023-01-12T04:29:55.268Z,1.87
2023-01-12T04:32:23.072Z,1.60
2023-01-12T04:34:50.103Z,2.87
2023-01-12T04:37:17.073Z,2.00
2023-01-12T04:39:44.093Z,1.20
2023-01-12T04:42:31.076Z,1.70
2023-01-12T04:44:58.025Z,1.60
2023-01-12T04:47:24.995Z,1.30
2023-01-12T04:49:51.916Z,1.50
2023-01-12T04:52:18.887Z,1.80
2023-01-12T04:54:45.784Z,1.70
2023-01-12T04:57:12.852Z,1.70
2023-01-12T04:59:39.806Z,1.67
2023-01-12T05:02:06.797Z,1.80
2023-01-12T05:04:33.912Z,2.23
2023-01-12T05:07:00.977Z,1.57
2023-01-12T05:09:46.758Z,2.03
2023-01-12T05:12:13.789Z,1.40
2023-01-12T05:14:40.755Z,1.63
2023-01-12T05:17:07.777Z,1.60
2023-01-12T05:19:34.732Z,1.37
2023-01-12T05:22:01.697Z,2.20
2023-01-12T05:24:28.648Z,2.20
2023-01-12T05:26:55.713Z,1.80
2023-01-12T05:29:22.988Z,1.67
2023-01-12T05:31:50.450Z,1.97
2023-01-12T05:34:19.883Z,2.13
2023-01-12T05:36:47.729Z,1.67
2023-01-12T05:39:14.989Z,1.60
2023-01-12T05:42:02.368Z,1.70
2023-01-12T05:44:29.686Z,1.57
2023-01-12T05:46:56.591Z,1.60
2023-01-12T05:49:23.607Z,2.03
2023-01-12T05:51:50.663Z,1.70
2023-01-12T05:54:17.770Z,2.07
2023-01-12T05:56:44.789Z,1.73
2023-01-12T05:59:12.529Z,1.57
2023-01-12T06:01:41.153Z,1.60
2023-01-12T06:04:08.169Z,1.60
2023-01-12T06:06:35.100Z,1.40
2023-01-12T06:09:03.504Z,1.40
2023-01-12T06:11:49.002Z,1.50
2023-01-12T06:14:16.709Z,2.40
2023-01-12T06:16:44.018Z,1.40
2023-01-12T06:19:13.188Z,1.00
2023-01-12T06:21:40.765Z,1.57
2023-01-12T06:24:08.325Z,1.30
2023-01-12T06:26:35.445Z,1.53
2023-01-12T06:29:05.659Z,2.20
2023-01-12T06:31:33.920Z,1.50
2023-01-12T06:34:00.964Z,2.07
2023-01-12T06:36:28.016Z,1.57
2023-01-12T06:38:54.989Z,2.27
2023-01-12T06:41:40.491Z,1.73
2023-01-12T06:44:07.424Z,1.90
2023-01-12T06:46:34.451Z,1.73
2023-01-12T06:49:01.476Z,2.40
2023-01-12T06:51:28.610Z,1.90
2023-01-12T06:53:55.635Z,1.40
2023-01-12T06:56:23.857Z,1.53
2023-01-12T06:58:50.815Z,1.87
2023-01-12T07:01:17.945Z,2.10
2023-01-12T07:03:46.228Z,3.10
2023-01-12T07:06:14.629Z,1.80
2023-01-12T07:08:41.743Z,2.10
2023-01-12T07:11:08.997Z,1.63
2023-01-12T07:13:35.966Z,2.57
2023-01-12T07:16:03.084Z,2.10
2023-01-12T07:18:31.389Z,2.40
2023-01-12T07:20:58.613Z,2.10
2023-01-12T07:23:25.939Z,2.53
2023-01-12T07:25:52.906Z,2.00
2023-01-12T07:28:20.087Z,2.67
2023-01-12T07:30:47.085Z,3.00
2023-01-12T07:33:18.427Z,3.30
2023-01-12T07:35:45.857Z,2.30
2023-01-12T07:38:12.908Z,2.57
2023-01-12T07:40:40.001Z,2.57
2023-01-12T07:43:09.687Z,3.20
2023-01-12T07:45:37.214Z,3.57
2023-01-12T07:48:04.616Z,4.90
2023-01-12T07:50:31.660Z,3.07
2023-01-12T07:53:02.471Z,2.70
2023-01-12T07:55:32.050Z,2.30
2023-01-12T07:58:01.467Z,2.40
2023-01-12T08:00:29.885Z,2.70
2023-01-12T08:03:08.747Z,3.00
2023-01-12T08:05:38.538Z,3.20
2023-01-12T08:08:06.971Z,2.97
2023-01-12T08:10:34.002Z,3.10
2023-01-12T08:13:01.039Z,2.60
2023-01-12T08:15:33.001Z,3.80
2023-01-12T08:18:10.524Z,2.20
2023-01-12T08:20:37.713Z,3.30
2023-01-12T08:23:21.091Z,3.00
2023-01-12T08:25:56.673Z,2.47
2023-01-12T08:28:33.928Z,2.53
2023-01-12T08:31:01.523Z,2.40
2023-01-12T08:33:29.083Z,3.13
2023-01-12T08:35:56.020Z,1.77
2023-01-12T08:38:23.054Z,2.33
2023-01-12T08:41:08.517Z,2.27
2023-01-12T08:43:53.953Z,1.80
2023-01-12T08:46:20.995Z,2.10
2023-01-12T08:48:47.909Z,2.33
2023-01-12T08:51:14.830Z,2.37
2023-01-12T08:53:43.164Z,2.10
2023-01-12T08:56:10.366Z,2.77
2023-01-12T08:58:37.431Z,2.40
2023-01-12T09:01:14.266Z,2.33
2023-01-12T09:03:41.781Z,2.63
2023-01-12T09:06:24.908Z,2.40
2023-01-12T09:08:58.523Z,2.00
2023-01-12T09:11:30.900Z,2.40
2023-01-12T09:13:59.103Z,2.40
2023-01-12T09:16:28.803Z,2.50
2023-01-12T09:18:56.771Z,2.70
2023-01-12T09:21:26.972Z,2.77
2023-01-12T09:23:55.320Z,2.23
2023-01-12T09:26:31.980Z,2.23
2023-01-12T09:29:01.637Z,2.33
2023-01-12T09:31:31.297Z,2.17
2023-01-12T09:33:59.895Z,2.53
2023-01-12T09:36:29.648Z,2.60
2023-01-12T09:38:58.347Z,2.27
2023-01-12T09:42:08.011Z,2.60
2023-01-12T09:45:10.235Z,1.70
2023-01-12T09:47:53.672Z,2.30
2023-01-12T09:50:43.143Z,1.87
2023-01-12T09:53:27.368Z,1.70
2023-01-12T09:56:03.294Z,1.53
2023-01-12T09:58:38.881Z,1.67
2023-01-12T10:01:24.145Z,1.73
2023-01-12T10:03:55.838Z,1.43
2023-01-12T10:06:23.053Z,1.90
2023-01-12T10:09:03.665Z,1.70
2023-01-12T10:12:06.301Z,2.10
2023-01-12T10:14:33.152Z,1.53
2023-01-12T10:17:55.500Z,1.20
2023-01-12T10:20:38.307Z,1.30
2023-01-12T10:23:12.953Z,2.23
2023-01-12T10:25:59.942Z,1.40
2023-01-12T10:28:30.733Z,1.10
2023-01-12T10:31:00.020Z,1.57
2023-01-12T10:33:29.821Z,1.23
2023-01-12T10:36:09.934Z,1.57
2023-01-12T10:39:01.084Z,1.33
2023-01-12T10:41:36.044Z,1.83
2023-01-12T10:44:16.492Z,1.20
2023-01-12T10:46:43.615Z,1.53
2023-01-12T10:49:23.316Z,1.57
2023-01-12T10:52:34.431Z,1.47
2023-01-12T10:55:01.439Z,1.30
2023-01-12T10:57:28.489Z,1.27
2023-01-12T10:59:59.570Z,1.37
2023-01-12T11:02:29.584Z,1.30
2023-01-12T11:04:56.726Z,1.30
2023-01-12T11:07:32.060Z,1.77
2023-01-12T11:10:28.217Z,1.20
2023-01-12T11:13:04.935Z,1.37
2023-01-12T11:15:39.380Z,1.63
2023-01-12T11:18:41.577Z,1.30
2023-01-12T11:21:13.870Z,1.30
2023-01-12T11:23:54.472Z,1.40
2023-01-12T11:26:28.921Z,1.73
2023-01-12T11:29:07.841Z,1.80
2023-01-12T11:31:42.938Z,2.10
2023-01-12T11:34:22.473Z,1.93
2023-01-12T11:37:14.215Z,1.80
2023-01-12T11:39:43.836Z,2.03
2023-01-12T11:42:38.601Z,2.10
2023-01-12T11:45:18.016Z,2.20
2023-01-12T11:47:55.329Z,2.40
2023-01-12T11:50:34.889Z,2.37
2023-01-12T11:53:05.301Z,2.30
2023-01-12T11:56:01.202Z,2.40
2023-01-12T11:58:55.389Z,1.97
2023-01-12T12:01:38.803Z,3.33
2023-01-12T12:04:33.845Z,2.67
2023-01-12T12:07:18.998Z,3.00
2023-01-12T12:10:24.020Z,2.77
2023-01-12T12:13:12.323Z,2.67
2023-01-12T12:15:45.496Z,4.37
2023-01-12T12:18:54.147Z,3.60
2023-01-12T12:21:47.818Z,4.37
2023-01-12T12:24:26.836Z,4.17
2023-01-12T12:26:59.506Z,4.97
2023-01-12T12:30:03.083Z,3.60
2023-01-12T12:32:53.652Z,3.80
2023-01-12T12:36:04.753Z,4.20
2023-01-12T12:39:13.322Z,2.30
2023-01-12T12:42:51.243Z,2.70
2023-01-12T12:45:39.957Z,3.80
2023-01-12T12:48:33.970Z,2.13
2023-01-12T12:51:09.100Z,2.03
2023-01-12T12:53:41.965Z,2.47
2023-01-12T12:56:14.811Z,2.93
2023-01-12T12:58:56.851Z,2.00
2023-01-12T13:01:23.984Z,2.10
2023-01-12T13:03:56.207Z,2.60
2023-01-12T13:06:28.802Z,2.43
2023-01-12T13:09:01.376Z,2.53
2023-01-12T13:12:00.782Z,2.67
2023-01-12T13:14:34.285Z,2.77
2023-01-12T13:17:19.436Z,2.40
2023-01-12T13:20:10.766Z,3.30
2023-01-12T13:22:49.878Z,4.07
2023-01-12T13:25:16.889Z,3.40
2023-01-12T13:28:19.144Z,2.77
2023-01-12T13:30:54.552Z,3.27
2023-01-12T13:33:27.972Z,2.90
2023-01-12T13:36:02.722Z,6.37
2023-01-12T13:38:39.486Z,4.53
2023-01-12T13:41:35.516Z,4.70
2023-01-12T13:44:03.415Z,5.30
2023-01-12T13:46:47.867Z,3.30
2023-01-12T13:49:36.297Z,3.73
2023-01-12T13:52:17.509Z,3.10
2023-01-12T13:54:52.119Z,3.30
2023-01-12T13:57:26.988Z,2.90
2023-01-12T14:00:11.276Z,3.50
2023-01-12T14:02:40.939Z,5.20
2023-01-12T14:05:20.913Z,3.73
2023-01-12T14:08:22.628Z,3.87
2023-01-12T14:11:30.399Z,3.10
2023-01-12T14:15:02.592Z,2.67
2023-01-12T14:17:49.377Z,3.10
2023-01-12T14:20:27.824Z,2.80
2023-01-12T14:23:28.061Z,2.03
2023-01-12T14:26:27.653Z,3.10
2023-01-12T14:28:54.714Z,3.70
2023-01-12T14:31:30.682Z,3.50
2023-01-12T14:34:01.621Z,2.10
2023-01-12T14:36:43.518Z,2.77
2023-01-12T14:39:20.567Z,3.03
2023-01-12T14:42:09.275Z,3.30
2023-01-12T14:44:58.680Z,3.30
2023-01-12T14:47:30.801Z,3.47
2023-01-12T14:50:16.944Z,3.20
2023-01-12T14:52:47.093Z,3.67
2023-01-12T14:55:41.370Z,3.53
2023-01-12T14:58:22.504Z,2.90
2023-01-12T15:00:49.556Z,2.77
2023-01-12T15:03:35.057Z,2.07
2023-01-12T15:06:05.155Z,1.83
2023-01-12T15:08:32.339Z,2.77
2023-01-12T15:11:10.756Z,3.10
2023-01-12T15:13:38.394Z,2.37
2023-01-12T15:16:25.516Z,2.90
2023-01-12T15:19:11.036Z,3.10
2023-01-12T15:22:13.625Z,3.37
2023-01-12T15:25:00.156Z,3.67
2023-01-12T15:27:28.089Z,3.37
2023-01-12T15:29:55.731Z,3.93
2023-01-12T15:32:48.820Z,3.63
2023-01-12T15:35:21.540Z,4.00
2023-01-12T15:37:48.756Z,2.70
2023-01-12T15:40:17.064Z,2.70
2023-01-12T15:42:44.191Z,2.53
2023-01-12T15:45:34.913Z,2.30
2023-01-12T15:48:06.969Z,2.50
2023-01-12T15:50:35.121Z,2.80
2023-01-12T15:53:02.512Z,2.33
2023-01-12T15:55:36.422Z,2.33
2023-01-12T15:58:03.838Z,2.70
2023-01-12T16:00:31.112Z,2.20
2023-01-12T16:02:58.168Z,2.30
2023-01-12T16:05:26.648Z,2.50
2023-01-12T16:07:54.047Z,3.00
2023-01-12T16:10:21.694Z,2.70
2023-01-12T16:12:48.808Z,3.47
2023-01-12T16:15:25.255Z,3.43
2023-01-12T16:17:52.984Z,3.23
2023-01-12T16:20:21.204Z,2.83
2023-01-12T16:22:48.908Z,3.43
2023-01-12T16:25:16.440Z,3.97
2023-01-12T16:27:43.840Z,4.83
2023-01-12T16:30:16.087Z,4.73
2023-01-12T16:32:47.065Z,4.57
2023-01-12T16:35:16.029Z,5.57
2023-01-12T16:37:44.960Z,5.17
2023-01-12T16:40:12.939Z,4.80
2023-01-12T16:42:40.013Z,5.10
2023-01-12T16:45:07.671Z,4.10
2023-01-12T16:47:34.783Z,4.17
2023-01-12T16:50:01.928Z,4.40
2023-01-12T16:52:28.990Z,3.27
2023-01-12T16:54:56.264Z,3.63
2023-01-12T16:57:23.348Z,4.00
2023-01-12T16:59:51.354Z,3.50
2023-01-12T17:02:19.765Z,3.20
2023-01-12T17:04:49.298Z,2.73
2023-01-12T17:07:16.525Z,3.87
2023-01-12T17:09:44.111Z,2.93
2023-01-12T17:12:11.618Z,3.10
2023-01-12T17:14:38.940Z,3.10
2023-01-12T17:17:10.457Z,2.90
2023-01-12T17:19:42.773Z,2.70
2023-01-12T17:22:11.827Z,2.30
2023-01-12T17:24:40.586Z,2.53
2023-01-12T17:27:10.113Z,2.33
2023-01-12T17:29:37.762Z,2.53
2023-01-12T17:32:06.741Z,2.20
2023-01-12T17:34:38.802Z,2.60
2023-01-12T17:37:09.990Z,2.90
2023-01-12T17:39:48.693Z,3.03
2023-01-12T17:42:35.971Z,2.70
2023-01-12T17:45:04.941Z,3.40
2023-01-12T17:47:32.167Z,3.00
2023-01-12T17:49:59.303Z,2.93
2023-01-12T17:52:26.531Z,2.70
2023-01-12T17:54:53.880Z,2.93
2023-01-12T17:57:21.099Z,4.03
2023-01-12T17:59:50.201Z,3.70
2023-01-12T18:02:18.514Z,3.50
2023-01-12T18:04:46.687Z,3.10
2023-01-12T18:07:13.746Z,3.60
2023-01-12T18:09:42.114Z,3.93
2023-01-12T18:12:10.688Z,4.37
2023-01-12T18:14:37.779Z,3.10
2023-01-12T18:17:04.924Z,3.30
2023-01-12T18:19:33.650Z,3.10
2023-01-12T18:22:06.107Z,3.03
2023-01-12T18:24:36.293Z,3.40
2023-01-12T18:27:03.599Z,3.20
2023-01-12T18:29:30.565Z,3.87
2023-01-12T18:31:57.549Z,4.03
2023-01-12T18:34:24.962Z,3.63
2023-01-12T18:36:52.119Z,3.87
2023-01-12T18:39:23.237Z,3.60
2023-01-12T18:42:09.624Z,3.80
2023-01-12T18:44:40.467Z,3.60
2023-01-12T18:47:26.393Z,5.13
2023-01-12T18:49:57.722Z,5.13
2023-01-12T18:52:43.490Z,4.60
2023-01-12T18:55:10.755Z,4.50
2023-01-12T18:57:37.782Z,6.73
2023-01-12T19:00:16.863Z,4.07
2023-01-12T19:02:44.943Z,4.43
2023-01-12T19:05:33.877Z,3.83
2023-01-12T19:08:01.241Z,3.70
2023-01-12T19:10:30.789Z,3.13
2023-01-12T19:13:17.259Z,3.80
2023-01-12T19:16:03.458Z,3.37
2023-01-12T19:18:31.597Z,4.73
2023-01-12T19:21:22.610Z,2.93
2023-01-12T19:24:08.663Z,4.43
2023-01-12T19:26:54.467Z,3.80
2023-01-12T19:29:21.705Z,4.33
2023-01-12T19:31:49.016Z,3.43
2023-01-12T19:34:17.224Z,3.77
2023-01-12T19:36:45.403Z,4.17
2023-01-12T19:39:13.269Z,5.07
2023-01-12T19:41:59.138Z,5.50
2023-01-12T19:44:26.235Z,10.10
2023-01-12T19:46:53.319Z,7.90
2023-01-12T19:49:20.369Z,5.00
2023-01-12T19:51:47.557Z,4.37
2023-01-12T19:54:15.695Z,4.40
2023-01-12T19:56:42.763Z,4.63
2023-01-12T19:59:09.669Z,4.00
2023-01-12T20:01:38.923Z,3.00
2023-01-12T20:04:06.658Z,4.07
2023-01-12T20:06:33.905Z,4.03
2023-01-12T20:09:04.556Z,3.73
2023-01-12T20:11:36.776Z,3.43
2023-01-12T20:14:04.611Z,3.50
2023-01-12T20:16:31.579Z,2.83
2023-01-12T20:18:59.830Z,4.20
2023-01-12T20:21:26.783Z,4.20
2023-01-12T20:23:53.715Z,3.63
2023-01-12T20:26:21.184Z,4.50
2023-01-12T20:28:48.291Z,3.53
2023-01-12T20:31:16.944Z,4.40
2023-01-12T20:33:44.005Z,2.80
2023-01-12T20:36:14.396Z,4.17
2023-01-12T20:38:41.640Z,3.53
2023-01-12T20:41:10.419Z,3.60
2023-01-12T20:43:37.800Z,4.07
2023-01-12T20:46:13.912Z,3.13
2023-01-12T20:48:42.706Z,3.37
2023-01-12T20:51:14.133Z,3.07
2023-01-12T20:53:41.778Z,3.30
2023-01-12T20:56:10.326Z,3.70
2023-01-12T20:58:37.733Z,2.90
2023-01-12T21:01:13.926Z,2.67
2023-01-12T21:03:41.788Z,2.90
2023-01-12T21:06:11.716Z,3.50
2023-01-12T21:08:40.270Z,3.53
2023-01-12T21:11:07.152Z,3.63
2023-01-12T21:13:34.824Z,3.50
2023-01-12T21:16:04.674Z,5.20
2023-01-12T21:18:32.164Z,3.80
2023-01-12T21:20:59.224Z,5.37
2023-01-12T21:23:27.045Z,3.97
2023-01-12T21:25:55.743Z,6.77
2023-01-12T21:28:24.014Z,5.13
2023-01-12T21:30:50.994Z,3.53
2023-01-12T21:33:18.165Z,3.73
2023-01-12T21:35:55.590Z,5.10
2023-01-12T21:38:23.693Z,4.10
2023-01-12T21:40:50.780Z,3.80
2023-01-12T21:43:18.498Z,5.33
2023-01-12T21:45:49.314Z,4.03
2023-01-12T21:48:19.248Z,3.53
2023-01-12T21:50:46.276Z,4.20
2023-01-12T21:53:21.347Z,3.80
2023-01-12T21:56:01.025Z,4.40
2023-01-12T21:58:35.309Z,3.57
2023-01-12T22:01:12.669Z,3.80
2023-01-12T22:03:40.460Z,3.80
2023-01-12T22:06:11.717Z,4.67
2023-01-12T22:08:41.485Z,3.50
2023-01-12T22:11:14.971Z,3.10
2023-01-12T22:13:43.797Z,3.90
2023-01-12T22:16:14.624Z,3.00
2023-01-12T22:18:47.444Z,2.80
2023-01-12T22:21:14.569Z,4.00
2023-01-12T22:23:41.579Z,3.60
2023-01-12T22:26:12.668Z,3.47
2023-01-12T22:28:43.148Z,3.20
2023-01-12T22:31:14.583Z,3.30
2023-01-12T22:33:46.744Z,3.07
2023-01-12T22:36:14.132Z,3.20
2023-01-12T22:38:42.418Z,2.70
2023-01-12T22:41:12.266Z,2.77
2023-01-12T22:43:43.234Z,2.13
2023-01-12T22:46:29.366Z,3.87
2023-01-12T22:48:59.544Z,2.30
2023-01-12T22:51:29.534Z,2.70
2023-01-12T22:53:57.856Z,3.13
2023-01-12T22:56:25.486Z,2.70
2023-01-12T22:58:55.707Z,1.90
2023-01-12T23:01:28.362Z,2.17
2023-01-12T23:03:57.793Z,2.07
2023-01-12T23:06:26.752Z,2.20
2023-01-12T23:08:54.267Z,2.30
2023-01-12T23:11:26.657Z,1.97
2023-01-12T23:13:57.187Z,2.20
2023-01-12T23:16:25.856Z,2.17
2023-01-12T23:18:55.508Z,2.13
2023-01-12T23:21:26.784Z,2.40
2023-01-12T23:23:59.864Z,2.17
2023-01-12T23:26:31.585Z,2.13
2023-01-12T23:29:00.831Z,2.13
2023-01-12T23:31:31.896Z,1.87
2023-01-12T23:33:59.061Z,1.57
2023-01-12T23:36:29.665Z,2.13
2023-01-12T23:39:03.856Z,2.07
2023-01-12T23:41:36.371Z,1.43
2023-01-12T23:44:07.765Z,1.80
2023-01-12T23:46:38.764Z,1.60
2023-01-12T23:49:06.218Z,1.53
2023-01-12T23:51:33.262Z,1.67
2023-01-12T23:54:01.892Z,1.87
2023-01-12T23:56:32.746Z,2.33
2023-01-12T23:58:59.776Z,2.67
